Time;durP1;ratioP1;P1;durP2;ratioP2;P2;SDS_P1;SDS_P2;PMS_P1;PMS_P2;Temp;Humidity;BMP_temperature;BMP_pressure;BME280_temperature;BME280_humidity;BME280_pressure;Samples;Min_cycle;Max_cycle;Signal;HPM_P1;HPM_P2
2023/10/08 00:02:05;;;;;;;2.40;0.55;;;13.60;99.90;;;;;;4976830;28;20054;-73
2023/10/08 00:04:52;;;;;;;2.08;0.63;;;13.60;99.90;;;;;;4994241;28;20458;-75
2023/10/08 00:07:42;;;;;;;5.00;0.70;;;13.60;99.90;;;;;;4975762;28;20058;-74
2023/10/08 00:10:28;;;;;;;3.22;0.52;;;13.60;99.90;;;;;;4978549;28;20498;-81
2023/10/08 00:13:17;;;;;;;6.13;0.77;;;13.60;99.90;;;;;;4976600;28;20046;-73
2023/10/08 00:16:09;;;;;;;2.72;0.50;;;13.60;99.90;;;;;;4976830;28;20491;-74
2023/10/08 00:18:59;;;;;;;5.00;0.80;;;13.60;99.90;;;;;;4975647;28;20502;-73
2023/10/08 00:21:47;;;;;;;4.03;0.45;;;13.60;99.90;;;;;;4980124;28;20331;-75
2023/10/08 00:24:33;;;;;;;2.92;0.85;;;13.60;99.90;;;;;;4975923;28;20533;-73
2023/10/08 00:27:21;;;;;;;2.08;0.80;;;13.60;99.90;;;;;;4979099;28;20069;-73
2023/10/08 00:30:17;;;;;;;6.93;0.85;;;13.60;99.90;;;;;;4976433;28;20141;-76
2023/10/08 00:33:04;;;;;;;2.85;0.57;;;13.60;99.90;;;;;;4976225;28;20093;-73
2023/10/08 00:35:50;;;;;;;9.77;1.15;;;13.60;99.90;;;;;;4976073;28;20129;-73
2023/10/08 00:38:37;;;;;;;7.15;1.20;;;13.60;99.90;;;;;;4975434;28;20054;-74
2023/10/08 00:41:27;;;;;;;5.05;1.25;;;13.60;99.90;;;;;;4993512;28;20462;-73
2023/10/08 00:44:23;;;;;;;5.60;0.82;;;13.60;99.90;;;;;;4993443;28;20062;-73
2023/10/08 00:47:10;;;;;;;6.13;0.98;;;13.60;99.90;;;;;;4993161;28;20502;-73
2023/10/08 00:50:06;;;;;;;5.32;1.10;;;13.60;99.90;;;;;;4975944;28;20076;-74
2023/10/08 00:53:10;;;;;;;;;;;13.60;99.90;;;;;;4975867;28;20406;-73
2023/10/08 00:56:04;;;;;;;4.60;0.90;;;13.60;99.90;;;;;;4975223;28;19926;-73
2023/10/08 00:58:53;;;;;;;2.85;0.60;;;13.60;99.90;;;;;;4975172;28;20380;-73
2023/10/08 01:01:39;;;;;;;9.85;1.25;;;13.70;99.90;;;;;;4974951;28;20461;-76
2023/10/08 01:04:26;;;;;;;11.52;1.33;;;13.70;99.90;;;;;;4974721;28;20042;-73
2023/10/08 01:07:15;;;;;;;8.35;2.13;;;13.60;99.90;;;;;;4961349;28;20061;-74
2023/10/08 01:10:10;;;;;;;6.15;0.80;;;13.70;99.90;;;;;;4975458;28;20056;-76
2023/10/08 01:13:04;;;;;;;9.23;1.27;;;13.70;99.90;;;;;;4975181;28;20117;-74
2023/10/08 01:15:51;;;;;;;9.73;1.17;;;13.60;99.90;;;;;;4975256;28;20058;-75
2023/10/08 01:18:43;;;;;;;9.40;1.23;;;13.70;99.90;;;;;;4975225;28;20142;-74
2023/10/08 01:21:39;;;;;;;7.95;1.33;;;13.70;99.90;;;;;;4974759;28;20046;-78
2023/10/08 01:24:27;;;;;;;8.07;2.58;;;13.70;99.90;;;;;;4974678;28;20454;-75
2023/10/08 01:27:19;;;;;;;4.78;1.30;;;13.70;99.90;;;;;;4973845;28;20503;-75
2023/10/08 01:30:12;;;;;;;9.23;1.48;;;13.70;99.90;;;;;;4991201;28;20064;-73
2023/10/08 01:32:58;;;;;;;6.03;1.13;;;13.70;99.90;;;;;;4974586;28;20050;-73
2023/10/08 01:35:44;;;;;;;6.25;1.20;;;13.70;99.90;;;;;;4974633;28;20109;-73
2023/10/08 01:38:35;;;;;;;12.60;1.48;;;13.70;99.90;;;;;;4974728;28;20046;-75
2023/10/08 01:41:31;;;;;;;10.85;2.33;;;13.70;99.90;;;;;;4975069;28;20058;-77
2023/10/08 01:44:17;;;;;;;8.05;1.50;;;13.70;99.90;;;;;;4975250;28;20410;-74
2023/10/08 01:47:11;;;;;;;8.00;1.38;;;13.70;99.90;;;;;;4991826;28;20491;-73
2023/10/08 01:50:05;;;;;;;7.07;1.10;;;13.70;99.90;;;;;;4977524;28;20185;-73
2023/10/08 01:52:51;;;;;;;7.07;1.33;;;13.70;99.90;;;;;;4974954;28;20572;-73
2023/10/08 01:55:49;;;;;;;9.63;1.77;;;13.70;99.90;;;;;;4973887;28;20093;-73
2023/10/08 01:58:35;;;;;;;7.32;1.52;;;13.70;99.90;;;;;;4991698;28;20081;-74
2023/10/08 02:01:21;;;;;;;8.75;1.00;;;13.70;99.90;;;;;;4974679;28;20050;-74
2023/10/08 02:04:07;;;;;;;8.68;1.40;;;13.70;99.90;;;;;;4973985;28;20467;-80
2023/10/08 02:06:53;;;;;;;11.75;1.63;;;13.70;99.90;;;;;;4973715;28;20050;-74
2023/10/08 02:09:40;;;;;;;9.35;1.42;;;13.70;99.90;;;;;;4974507;28;20066;-77
2023/10/08 02:12:26;;;;;;;11.30;2.15;;;13.70;99.90;;;;;;4974199;28;20058;-73
2023/10/08 02:15:12;;;;;;;8.30;1.20;;;13.70;99.90;;;;;;4973581;28;20058;-74
2023/10/08 02:17:58;;;;;;;9.18;1.42;;;13.70;99.90;;;;;;4973332;28;20054;-74
2023/10/08 02:20:45;;;;;;;7.72;1.35;;;13.70;99.90;;;;;;4959146;28;20094;-74
2023/10/08 02:23:31;;;;;;;5.93;1.50;;;13.70;99.90;;;;;;4973322;28;20139;-75
2023/10/08 02:26:19;;;;;;;11.90;1.60;;;13.70;99.90;;;;;;4973802;28;20058;-73
2023/10/08 02:29:11;;;;;;;10.85;2.65;;;13.70;99.90;;;;;;4976512;28;20451;-73
2023/10/08 02:31:58;;;;;;;9.80;1.98;;;13.70;99.90;;;;;;4973513;28;20066;-73
2023/10/08 02:34:45;;;;;;;13.85;1.65;;;13.70;99.90;;;;;;4973451;28;20054;-73
2023/10/08 02:37:30;;;;;;;24.60;2.80;;;13.70;99.90;;;;;;4989931;28;20528;-73
2023/10/08 02:40:19;;;;;;;9.90;1.63;;;13.70;99.90;;;;;;4973828;28;20194;-74
2023/10/08 02:43:08;;;;;;;10.45;1.92;;;13.70;99.90;;;;;;4961081;28;20054;-73
2023/10/08 02:45:55;;;;;;;8.90;1.63;;;13.70;99.90;;;;;;4974664;28;20495;-73
2023/10/08 02:48:41;;;;;;;6.70;1.45;;;13.70;99.90;;;;;;4974625;28;20058;-73
2023/10/08 02:51:28;;;;;;;17.45;2.30;;;13.70;99.90;;;;;;4990737;28;20054;-73
2023/10/08 02:54:22;;;;;;;9.18;1.23;;;13.70;99.90;;;;;;4973122;28;20067;-84
2023/10/08 02:57:16;;;;;;;10.70;1.90;;;13.70;99.90;;;;;;4972808;28;20066;-73
2023/10/08 03:00:04;;;;;;;10.00;2.20;;;13.70;99.90;;;;;;4990728;28;20054;-74
2023/10/08 03:02:51;;;;;;;11.18;1.98;;;13.70;99.90;;;;;;4973792;28;20058;-73
2023/10/08 03:05:37;;;;;;;7.63;1.60;;;13.60;99.90;;;;;;4973782;28;20089;-73
2023/10/08 03:08:23;;;;;;;9.65;1.60;;;13.70;99.90;;;;;;4990510;28;20486;-74
2023/10/08 03:11:16;;;;;;;11.10;2.15;;;13.70;99.90;;;;;;4991075;28;20509;-77
2023/10/08 03:14:03;;;;;;;14.13;2.03;;;13.70;99.90;;;;;;4973382;28;20065;-73
2023/10/08 03:16:53;;;;;;;11.20;1.73;;;13.70;99.90;;;;;;4973327;28;20082;-75
2023/10/08 03:19:44;;;;;;;8.68;1.48;;;13.70;99.90;;;;;;4972976;28;20105;-74
2023/10/08 03:22:33;;;;;;;10.20;2.30;;;13.70;99.90;;;;;;4973204;28;20142;-74
2023/10/08 03:25:19;;;;;;;12.43;1.73;;;13.70;99.90;;;;;;4973842;28;20050;-74
2023/10/08 03:28:08;;;;;;;10.07;1.30;;;13.70;99.90;;;;;;4959576;28;20731;-73
2023/10/08 03:31:02;;;;;;;11.63;2.40;;;13.70;99.90;;;;;;4991321;28;20065;-75
2023/10/08 03:33:51;;;;;;;9.05;1.48;;;13.60;99.90;;;;;;4991102;28;20105;-76
2023/10/08 03:36:44;;;;;;;17.60;3.35;;;13.60;99.90;;;;;;4973718;28;20045;-77
2023/10/08 03:39:50;;;;;;;8.95;1.60;;;13.70;99.90;;;;;;4973856;28;20058;-74
2023/10/08 03:42:41;;;;;;;8.70;1.33;;;13.60;99.90;;;;;;4973408;28;20061;-73
2023/10/08 03:48:38;;;;;;;8.10;1.35;;;13.70;99.90;;;;;;4973186;28;20053;-74
2023/10/08 03:51:27;;;;;;;8.40;1.33;;;13.70;99.90;;;;;;4989848;28;20133;-78
2023/10/08 03:54:16;;;;;;;6.32;1.63;;;13.70;99.90;;;;;;4975854;28;20602;-73
2023/10/08 03:57:13;;;;;;;9.68;1.40;;;13.70;99.90;;;;;;4963216;28;20182;-74
2023/10/08 03:59:59;;;;;;;12.43;1.63;;;13.70;99.90;;;;;;4976017;28;20112;-73
2023/10/08 04:02:55;;;;;;;11.85;1.55;;;13.70;99.90;;;;;;4977065;28;20058;-73
2023/10/08 04:05:56;;;;;;;11.15;1.65;;;13.70;99.90;;;;;;4976311;28;20050;-73
2023/10/08 04:08:58;;;;;;;8.48;1.50;;;13.70;99.90;;;;;;4992945;28;20057;-75
2023/10/08 04:12:03;;;;;;;11.88;1.77;;;13.70;99.90;;;;;;4976364;28;20051;-73
2023/10/08 04:14:49;;;;;;;15.52;2.72;;;13.70;99.90;;;;;;4975367;28;20545;-74
2023/10/08 04:17:45;;;;;;;6.22;1.33;;;13.70;99.90;;;;;;4976432;28;20050;-74
2023/10/08 04:20:32;;;;;;;11.90;1.40;;;13.70;99.90;;;;;;4974574;28;20490;-75
2023/10/08 04:23:20;;;;;;;14.15;1.90;;;13.70;99.90;;;;;;4975930;28;20093;-73
2023/10/08 04:26:06;;;;;;;5.88;1.58;;;13.70;99.90;;;;;;4962379;28;20146;-74
2023/10/08 04:28:57;;;;;;;5.60;0.90;;;13.70;99.90;;;;;;4975646;28;20109;-73
2023/10/08 04:31:46;;;;;;;7.18;1.75;;;13.70;99.90;;;;;;4975761;28;20046;-73
2023/10/08 04:34:33;;;;;;;10.68;1.58;;;13.70;99.90;;;;;;4974878;28;20112;-75
2023/10/08 04:37:20;;;;;;;9.70;1.67;;;13.70;99.90;;;;;;4963424;28;20051;-76
2023/10/08 04:40:15;;;;;;;6.20;1.40;;;13.60;99.90;;;;;;4975268;28;20066;-76
2023/10/08 04:43:03;;;;;;;;;;;13.60;99.90;;;;;;4976086;28;20113;-78
2023/10/08 04:45:49;;;;;;;9.27;1.35;;;13.60;99.90;;;;;;4976285;28;20383;-80
2023/10/08 04:48:36;;;;;;;10.30;1.60;;;13.60;99.90;;;;;;4975797;28;20038;-72
2023/10/08 04:51:22;;;;;;;8.77;2.40;;;13.50;99.90;;;;;;4976296;28;20125;-80
2023/10/08 04:54:10;;;;;;;4.75;1.25;;;13.50;99.90;;;;;;4975377;28;20050;-79
2023/10/08 04:57:00;;;;;;;10.63;1.88;;;13.50;99.90;;;;;;4975413;28;20089;-77
2023/10/08 04:59:49;;;;;;;10.35;1.63;;;13.50;99.90;;;;;;4975238;28;20066;-75
2023/10/08 05:02:50;;;;;;;10.70;1.95;;;13.50;99.90;;;;;;4975891;28;20058;-78
2023/10/08 05:05:55;;;;;;;9.82;1.33;;;13.50;99.90;;;;;;4974228;28;20145;-76
2023/10/08 05:12:10;;;;;;;11.95;1.88;;;13.40;99.90;;;;;;4918108;28;20066;-74
2023/10/08 05:15:21;;;;;;;13.07;2.10;;;13.40;99.90;;;;;;4960151;28;20121;-78
2023/10/08 05:18:14;;;;;;;6.70;1.00;;;13.40;99.90;;;;;;4974781;28;20323;-84
2023/10/08 05:21:03;;;;;;;8.60;1.70;;;13.50;99.90;;;;;;4975200;28;20133;-76
2023/10/08 05:27:15;;;;;;;18.20;1.75;;;13.40;99.90;;;;;;4974643;28;20451;-74
2023/10/08 05:30:16;;;;;;;9.07;1.20;;;13.40;99.90;;;;;;4992842;28;20550;-73
2023/10/08 05:35:49;;;;;;;6.32;1.38;;;13.40;99.90;;;;;;4975044;28;20418;-78
2023/10/08 05:41:51;;;;;;;12.32;2.45;;;13.40;99.90;;;;;;4974404;28;20105;-79
2023/10/08 05:44:40;;;;;;;7.90;1.63;;;13.40;99.90;;;;;;4964061;28;20073;-73
2023/10/08 05:47:38;;;;;;;6.38;1.65;;;13.40;99.90;;;;;;4973401;28;20054;-85
2023/10/08 05:53:29;;;;;;;11.98;1.90;;;13.40;99.90;;;;;;4973462;28;20085;-79
2023/10/08 05:56:42;;;;;;;11.85;3.15;;;13.40;99.90;;;;;;4973548;28;20533;-78
2023/10/08 05:59:38;;;;;;;13.50;1.88;;;13.40;99.90;;;;;;4990866;28;20433;-87
2023/10/08 06:05:26;;;;;;;21.05;2.95;;;13.40;99.90;;;;;;4974156;28;20051;-74
2023/10/08 06:08:14;;;;;;;10.40;1.60;;;13.50;99.90;;;;;;4973696;28;20054;-77
2023/10/08 06:11:14;;;;;;;14.10;2.50;;;13.40;99.90;;;;;;4991047;28;20054;-78
2023/10/08 06:14:00;;;;;;;12.65;1.65;;;13.40;99.90;;;;;;4991387;28;20057;-77
2023/10/08 06:17:01;;;;;;;7.85;2.47;;;13.50;99.90;;;;;;4972944;28;20128;-90
2023/10/08 06:19:49;;;;;;;13.50;2.00;;;13.50;99.90;;;;;;4974119;28;20140;-81
2023/10/08 06:22:36;;;;;;;8.10;1.88;;;13.50;99.90;;;;;;4960779;28;20086;-86
2023/10/08 06:25:24;;;;;;;15.50;1.85;;;13.60;99.90;;;;;;4974213;28;20069;-82
2023/10/08 06:28:21;;;;;;;8.90;2.13;;;13.50;99.90;;;;;;4972674;28;20141;-79
2023/10/08 06:31:11;;;;;;;9.63;1.70;;;13.50;99.90;;;;;;4991354;28;20058;-83
2023/10/08 06:33:57;;;;;;;9.88;1.55;;;13.60;99.90;;;;;;4973666;28;20089;-73
2023/10/08 06:36:44;;;;;;;10.32;1.67;;;13.60;99.90;;;;;;4991212;28;20053;-77
2023/10/08 06:39:33;;;;;;;10.40;1.77;;;13.60;99.90;;;;;;4990235;28;20093;-84
2023/10/08 06:42:20;;;;;;;11.35;2.28;;;13.60;99.90;;;;;;4991491;28;20042;-87
2023/10/08 06:45:09;;;;;;;4.57;1.60;;;13.60;99.90;;;;;;4991163;28;20062;-83
2023/10/08 06:47:57;;;;;;;15.80;1.75;;;13.70;99.90;;;;;;4974148;28;20081;-90
2023/10/08 06:50:44;;;;;;;8.52;2.03;;;13.70;99.90;;;;;;4974230;28;20057;-86
2023/10/08 06:53:30;;;;;;;7.65;1.73;;;13.70;99.90;;;;;;4974040;28;20058;-77
2023/10/08 06:56:19;;;;;;;10.02;1.88;;;13.70;99.90;;;;;;4991721;28;20051;-83
2023/10/08 06:59:09;;;;;;;9.02;2.58;;;13.70;99.90;;;;;;4991550;28;20050;-88
2023/10/08 07:01:55;;;;;;;10.38;1.60;;;13.70;99.90;;;;;;4973763;28;20410;-74
2023/10/08 07:04:43;;;;;;;6.57;1.55;;;13.80;99.90;;;;;;4974086;28;20081;-88
2023/10/08 07:07:31;;;;;;;12.50;1.80;;;13.80;99.90;;;;;;4974822;28;20058;-73
2023/10/08 07:10:19;;;;;;;5.82;1.50;;;13.90;99.90;;;;;;4976920;28;20054;-91
2023/10/08 07:13:07;;;;;;;9.43;2.58;;;13.90;99.90;;;;;;4974761;28;20054;-87
2023/10/08 07:15:55;;;;;;;13.45;2.60;;;13.90;99.90;;;;;;4972620;28;20148;-85
2023/10/08 07:18:44;;;;;;;12.38;2.08;;;13.90;99.90;;;;;;4956813;28;20054;-85
2023/10/08 07:21:44;;;;;;;14.80;1.92;;;13.90;99.90;;;;;;4955288;28;20484;-78
2023/10/08 07:24:34;;;;;;;16.02;2.15;;;13.90;99.90;;;;;;4955250;28;20055;-73
2023/10/08 07:27:31;;;;;;;11.32;2.15;;;13.90;99.90;;;;;;4955408;28;20053;-76
2023/10/08 07:30:26;;;;;;;10.93;1.67;;;13.90;99.90;;;;;;4976293;28;20173;-74
2023/10/08 07:33:17;;;;;;;8.18;1.35;;;13.90;99.90;;;;;;4958378;28;20139;-73
2023/10/08 07:36:11;;;;;;;10.30;2.10;;;13.90;99.90;;;;;;4958294;28;20046;-80
2023/10/08 07:38:57;;;;;;;12.05;2.03;;;13.90;99.90;;;;;;4958579;28;20579;-75
2023/10/08 07:41:43;;;;;;;11.45;2.00;;;13.90;99.90;;;;;;4958548;28;20062;-72
2023/10/08 07:44:35;;;;;;;6.57;1.35;;;14.00;99.90;;;;;;4958326;28;20054;-72
2023/10/08 07:47:21;;;;;;;11.25;1.50;;;14.00;99.90;;;;;;4958012;28;20133;-73
2023/10/08 07:50:11;;;;;;;8.23;1.60;;;14.10;99.90;;;;;;4958492;28;20145;-73
2023/10/08 07:52:57;;;;;;;9.40;1.83;;;14.20;99.90;;;;;;4958365;28;20065;-75
2023/10/08 07:55:48;;;;;;;12.82;1.92;;;14.20;99.90;;;;;;4958253;28;20090;-73
2023/10/08 07:58:37;;;;;;;8.38;1.15;;;14.30;99.90;;;;;;4958213;28;20055;-73
2023/10/08 08:01:26;;;;;;;8.98;1.60;;;14.30;99.90;;;;;;4958201;28;20062;-74
2023/10/08 08:04:22;;;;;;;6.07;1.20;;;14.30;99.90;;;;;;4958112;28;20751;-73
2023/10/08 08:07:15;;;;;;;11.50;1.42;;;14.40;99.90;;;;;;4958161;28;20055;-72
2023/10/08 08:10:04;;;;;;;15.15;1.73;;;14.50;99.90;;;;;;4975152;28;20058;-73
2023/10/08 08:12:54;;;;;;;14.68;3.97;;;14.50;99.90;;;;;;4958185;28;20053;-72
2023/10/08 08:15:42;;;;;;;12.40;1.80;;;14.60;99.90;;;;;;4957813;28;20051;-73
2023/10/08 08:18:32;;;;;;;8.30;1.40;;;14.60;99.90;;;;;;4957464;28;20117;-72
2023/10/08 08:21:19;;;;;;;12.45;2.38;;;14.70;99.90;;;;;;4960600;28;20063;-73
2023/10/08 08:24:05;;;;;;;7.90;1.70;;;14.80;99.90;;;;;;4957568;28;20105;-72
2023/10/08 08:27:23;;;;;;;10.38;1.58;;;14.80;99.90;;;;;;4957745;28;20055;-72
2023/10/08 08:30:10;;;;;;;12.95;1.95;;;14.90;99.90;;;;;;4957656;28;20065;-75
2023/10/08 08:32:58;;;;;;;8.30;1.55;;;14.90;99.90;;;;;;4957733;28;20063;-73
2023/10/08 08:35:45;;;;;;;14.13;2.25;;;15.00;99.90;;;;;;4944257;28;20086;-77
2023/10/08 08:38:32;;;;;;;11.35;1.75;;;15.00;99.90;;;;;;4956920;28;20071;-76
2023/10/08 08:41:20;;;;;;;9.82;1.63;;;15.10;99.90;;;;;;4957586;28;20816;-73
2023/10/08 08:44:07;;;;;;;9.30;1.55;;;15.20;99.90;;;;;;4975324;28;20496;-76
2023/10/08 08:46:53;;;;;;;10.73;1.42;;;15.30;99.90;;;;;;4957412;28;20090;-77
2023/10/08 08:49:41;;;;;;;8.95;1.50;;;15.40;99.90;;;;;;4957615;28;20101;-74
2023/10/08 08:52:27;;;;;;;10.45;2.17;;;15.50;99.90;;;;;;4957795;28;20137;-71
2023/10/08 08:55:17;;;;;;;12.23;1.92;;;15.60;99.90;;;;;;4957186;28;20521;-75
2023/10/08 08:58:05;;;;;;;10.52;1.60;;;15.70;99.90;;;;;;4957432;28;20059;-78
2023/10/08 09:00:52;;;;;;;8.23;1.80;;;15.80;99.90;;;;;;4959752;28;20050;-72
2023/10/08 09:03:39;;;;;;;11.70;2.42;;;15.80;99.90;;;;;;4958947;28;20050;-72
2023/10/08 09:06:25;;;;;;;8.25;1.77;;;15.90;99.90;;;;;;4945953;28;20447;-72
2023/10/08 09:09:21;;;;;;;14.88;1.50;;;15.90;99.90;;;;;;4958669;28;20093;-72
2023/10/08 09:12:10;;;;;;;12.98;1.95;;;16.00;99.90;;;;;;4957996;28;20062;-72
2023/10/08 09:15:02;;;;;;;7.45;2.33;;;16.10;99.90;;;;;;4958058;28;20058;-73
2023/10/08 09:17:49;;;;;;;11.30;2.63;;;16.30;99.90;;;;;;4956975;28;20767;-72
2023/10/08 09:20:44;;;;;;;7.78;1.77;;;16.70;99.90;;;;;;4973161;28;20061;-72
2023/10/08 09:23:30;;;;;;;8.52;1.63;;;16.80;99.90;;;;;;4959645;28;20058;-72
2023/10/08 09:26:23;;;;;;;8.23;1.60;;;16.80;99.90;;;;;;4955329;28;20082;-72
2023/10/08 09:29:11;;;;;;;10.93;1.77;;;16.90;99.90;;;;;;4956367;28;20058;-72
2023/10/08 09:31:59;;;;;;;13.35;2.03;;;17.10;99.90;;;;;;4956479;28;20055;-72
2023/10/08 09:34:45;;;;;;;6.30;1.73;;;17.30;99.90;;;;;;4956419;28;20110;-74
2023/10/08 09:37:31;;;;;;;9.88;1.38;;;17.40;99.90;;;;;;4956487;28;20055;-73
2023/10/08 09:40:21;;;;;;;11.52;1.23;;;17.40;99.90;;;;;;4956197;28;20070;-74
2023/10/08 09:43:09;;;;;;;8.02;1.67;;;17.40;99.90;;;;;;4955979;28;20558;-73
2023/10/08 09:46:08;;;;;;;7.55;1.30;;;17.30;99.90;;;;;;4956292;28;20054;-72
2023/10/08 09:48:59;;;;;;;10.50;1.33;;;17.30;99.90;;;;;;4955921;28;20054;-74
2023/10/08 09:51:46;;;;;;;8.35;1.70;;;17.20;99.90;;;;;;4955428;28;20061;-72
2023/10/08 09:55:03;;;;;;;10.40;2.35;;;17.20;99.90;;;;;;4956012;28;20051;-72
2023/10/08 09:57:55;;;;;;;8.95;1.50;;;17.20;99.90;;;;;;4955803;28;20059;-72
2023/10/08 10:00:44;;;;;;;7.50;1.40;;;17.30;99.90;;;;;;4955794;28;20046;-72
2023/10/08 10:03:33;;;;;;;8.82;1.40;;;17.50;99.90;;;;;;4956167;28;20122;-72
2023/10/08 10:06:20;;;;;;;8.02;1.40;;;17.70;99.90;;;;;;4955940;28;20050;-72
2023/10/08 10:09:15;;;;;;;9.25;1.60;;;17.70;99.90;;;;;;4955178;28;20058;-73
2023/10/08 10:12:01;;;;;;;7.55;1.42;;;18.00;99.90;;;;;;4973120;28;20093;-73
2023/10/08 10:14:52;;;;;;;9.25;1.50;;;18.00;99.90;;;;;;4955738;28;20055;-72
2023/10/08 10:17:40;;;;;;;8.25;1.85;;;18.10;99.90;;;;;;4955496;28;20748;-72
2023/10/08 10:20:27;;;;;;;10.27;2.83;;;18.50;99.90;;;;;;4955711;28;20054;-72
2023/10/08 10:23:39;;;;;;;9.45;1.60;;;18.90;99.90;;;;;;4954726;28;20066;-71
2023/10/08 10:26:30;;;;;;;8.85;1.27;;;18.90;99.90;;;;;;4955212;28;20094;-72
2023/10/08 10:29:20;;;;;;;9.68;1.52;;;18.80;99.90;;;;;;4972696;28;20057;-73
2023/10/08 10:32:06;;;;;;;10.25;1.58;;;18.70;99.90;;;;;;4942022;28;20467;-73
2023/10/08 10:34:52;;;;;;;8.98;1.40;;;18.50;99.90;;;;;;4955266;28;20137;-77
2023/10/08 10:37:42;;;;;;;8.77;1.33;;;18.30;99.90;;;;;;4955122;28;20054;-72
2023/10/08 10:40:41;;;;;;;6.78;1.95;;;18.30;99.90;;;;;;4972678;28;20058;-72
2023/10/08 10:43:33;;;;;;;10.52;1.58;;;18.30;99.90;;;;;;4955109;28;20197;-74
2023/10/08 10:46:31;;;;;;;8.40;1.30;;;18.30;99.90;;;;;;4955510;28;20558;-73
2023/10/08 10:49:21;;;;;;;12.45;1.60;;;18.50;99.90;;;;;;4972721;28;20058;-72
2023/10/08 10:52:11;;;;;;;8.30;1.30;;;18.30;99.90;;;;;;4941961;28;20055;-73
2023/10/08 10:58:11;;;;;;;8.50;1.40;;;18.40;99.90;;;;;;4955371;28;20078;-78
2023/10/08 11:00:58;;;;;;;7.07;1.60;;;18.70;99.90;;;;;;4954692;28;20065;-76
2023/10/08 11:03:47;;;;;;;10.73;1.83;;;18.70;99.70;;;;;;4959093;28;20500;-72
2023/10/08 11:06:37;;;;;;;11.25;1.85;;;18.70;99.50;;;;;;4959161;28;20054;-74
2023/10/08 11:09:36;;;;;;;9.60;2.30;;;18.80;99.50;;;;;;4976002;28;20051;-75
2023/10/08 11:12:32;;;;;;;6.32;1.00;;;18.90;99.70;;;;;;4976296;28;20494;-77
2023/10/08 11:15:18;;;;;;;10.30;1.50;;;19.00;99.30;;;;;;4975925;28;20065;-78
2023/10/08 11:18:11;;;;;;;8.10;1.55;;;19.10;99.00;;;;;;4965629;28;20057;-72
2023/10/08 11:21:15;;;;;;;9.05;1.75;;;19.10;98.60;;;;;;4973926;28;20063;-72
2023/10/08 11:24:08;;;;;;;11.85;1.30;;;19.10;98.40;;;;;;4959205;28;20058;-77
2023/10/08 11:27:16;;;;;;;10.80;1.85;;;19.00;98.40;;;;;;4958311;28;20086;-73
2023/10/08 11:30:01;;;;;;;6.20;0.95;;;19.20;99.00;;;;;;4975502;28;20117;-73
2023/10/08 11:32:48;;;;;;;9.25;1.50;;;19.30;98.80;;;;;;4957180;28;20142;-72
2023/10/08 11:35:34;;;;;;;9.13;1.23;;;19.20;98.40;;;;;;4969055;28;20054;-74
2023/10/08 11:38:22;;;;;;;5.45;1.10;;;19.10;98.30;;;;;;4974343;28;20057;-74
2023/10/08 11:41:22;;;;;;;7.57;2.08;;;19.10;98.20;;;;;;4957672;28;20074;-73
2023/10/08 11:44:13;;;;;;;8.45;1.33;;;18.90;98.20;;;;;;4958267;28;20157;-74
2023/10/08 11:47:10;;;;;;;11.93;2.58;;;19.00;98.50;;;;;;4957663;28;20150;-73
2023/10/08 11:50:09;;;;;;;10.52;2.05;;;19.30;98.30;;;;;;4974431;28;20058;-73
2023/10/08 11:53:01;;;;;;;10.77;1.58;;;19.80;97.90;;;;;;4957792;28;20059;-73
2023/10/08 11:55:47;;;;;;;6.57;1.60;;;20.30;97.20;;;;;;4957960;28;20109;-72
2023/10/08 11:58:39;;;;;;;7.13;1.15;;;21.20;96.90;;;;;;4956633;28;20142;-76
2023/10/08 12:01:27;;;;;;;12.30;1.40;;;22.10;95.80;;;;;;4973716;28;20113;-75
2023/10/08 12:04:15;;;;;;;8.68;1.75;;;22.20;93.30;;;;;;4957576;28;20054;-72
2023/10/08 12:07:07;;;;;;;9.00;1.30;;;21.70;92.70;;;;;;4957969;28;20086;-74
2023/10/08 12:09:54;;;;;;;10.25;1.95;;;21.40;93.10;;;;;;4957998;28;20054;-72
2023/10/08 12:12:40;;;;;;;7.65;1.35;;;21.50;93.60;;;;;;4969480;28;20059;-74
2023/10/08 12:15:34;;;;;;;10.00;1.55;;;21.90;93.60;;;;;;4973007;28;20066;-88
2023/10/08 12:18:26;;;;;;;9.60;1.55;;;22.10;92.60;;;;;;4943592;28;20134;-74
2023/10/08 12:21:14;;;;;;;8.02;1.20;;;22.20;91.80;;;;;;4957168;28;20149;-78
2023/10/08 12:24:04;;;;;;;8.50;1.48;;;22.60;91.50;;;;;;4957142;28;20407;-73
2023/10/08 12:26:51;;;;;;;7.53;1.30;;;23.00;90.80;;;;;;4957704;28;20509;-74
2023/10/08 12:29:38;;;;;;;6.82;1.90;;;23.80;91.20;;;;;;4956729;28;20054;-73
2023/10/08 12:32:26;;;;;;;7.45;1.40;;;24.80;87.90;;;;;;4931589;28;20054;-74
2023/10/08 12:35:15;;;;;;;5.97;1.10;;;25.00;85.20;;;;;;4944378;28;20054;-79
2023/10/08 12:38:01;;;;;;;9.50;2.10;;;25.10;82.90;;;;;;4957448;28;20175;-74
2023/10/08 12:40:52;;;;;;;5.45;1.73;;;25.30;82.20;;;;;;4957353;28;20059;-81
2023/10/08 12:43:45;;;;;;;8.60;1.63;;;25.50;80.40;;;;;;4974272;28;20061;-74
2023/10/08 12:46:33;;;;;;;8.65;1.35;;;25.40;80.90;;;;;;4975015;28;20058;-74
2023/10/08 12:49:21;;;;;;;7.55;1.52;;;24.80;81.20;;;;;;4958101;28;20055;-76
2023/10/08 12:52:08;;;;;;;5.72;1.40;;;23.80;81.60;;;;;;4957250;28;20058;-75
2023/10/08 12:54:55;;;;;;;8.80;1.98;;;23.10;84.10;;;;;;4956999;28;20054;-75
2023/10/08 12:57:45;;;;;;;8.95;1.88;;;22.70;84.10;;;;;;4957244;28;20125;-73
2023/10/08 13:00:37;;;;;;;7.93;1.70;;;22.30;85.60;;;;;;4974025;28;20061;-72
2023/10/08 13:03:30;;;;;;;8.95;1.50;;;22.00;85.70;;;;;;4956995;28;20070;-73
2023/10/08 13:06:30;;;;;;;6.90;1.58;;;21.60;86.20;;;;;;4943292;28;20056;-73
2023/10/08 13:09:17;;;;;;;11.48;2.42;;;21.30;88.50;;;;;;4974419;28;20475;-73
2023/10/08 13:12:04;;;;;;;9.40;1.50;;;21.10;90.20;;;;;;4957026;28;20055;-75
2023/10/08 13:14:50;;;;;;;9.25;1.35;;;21.00;91.20;;;;;;4956851;28;20069;-73
2023/10/08 13:17:36;;;;;;;6.18;1.30;;;21.00;91.40;;;;;;4956595;28;20055;-73
2023/10/08 13:20:25;;;;;;;5.75;1.73;;;20.70;91.60;;;;;;4956520;28;20500;-73
2023/10/08 13:23:11;;;;;;;4.05;1.15;;;20.80;91.10;;;;;;4956614;28;20059;-72
2023/10/08 13:26:04;;;;;;;5.03;1.05;;;21.50;90.30;;;;;;4955961;28;20146;-72
2023/10/08 13:28:50;;;;;;;9.75;1.73;;;21.70;89.00;;;;;;4956682;28;20098;-73
2023/10/08 13:31:36;;;;;;;5.15;1.40;;;21.60;89.50;;;;;;4956472;28;20149;-73
2023/10/08 13:34:22;;;;;;;6.93;1.38;;;21.30;90.20;;;;;;4959023;28;20526;-74
2023/10/08 13:37:08;;;;;;;7.43;1.30;;;20.90;90.60;;;;;;4956461;28;20055;-72
2023/10/08 13:39:54;;;;;;;7.35;2.03;;;20.60;90.80;;;;;;4956522;28;20051;-72
2023/10/08 13:42:41;;;;;;;8.10;1.20;;;20.20;91.40;;;;;;4973656;28;20109;-73
2023/10/08 13:45:29;;;;;;;7.05;1.13;;;20.00;92.20;;;;;;4943184;28;20058;-73
2023/10/08 13:48:15;;;;;;;4.95;1.40;;;19.80;93.00;;;;;;4956118;28;20051;-72
2023/10/08 13:51:05;;;;;;;6.82;1.40;;;19.70;93.60;;;;;;4955917;28;20094;-74
2023/10/08 13:53:53;;;;;;;9.60;1.98;;;19.60;93.60;;;;;;4955773;28;20051;-74
2023/10/08 13:56:42;;;;;;;5.68;1.55;;;19.50;94.70;;;;;;4955747;28;20062;-76
2023/10/08 13:59:31;;;;;;;10.00;2.10;;;19.50;94.60;;;;;;4954832;28;20426;-75
2023/10/08 14:02:21;;;;;;;10.77;1.55;;;19.50;94.50;;;;;;4955676;28;20066;-74
2023/10/08 14:05:08;;;;;;;10.10;1.38;;;19.40;94.80;;;;;;4955734;28;20062;-72
2023/10/08 14:07:56;;;;;;;7.30;1.63;;;19.30;95.20;;;;;;4956303;28;20055;-73
2023/10/08 14:10:43;;;;;;;8.05;2.00;;;19.10;95.70;;;;;;4955833;28;20055;-75
2023/10/08 14:13:32;;;;;;;7.65;1.88;;;19.00;96.00;;;;;;4955842;28;20058;-73
2023/10/08 14:16:28;;;;;;;8.02;1.40;;;18.90;97.00;;;;;;4955570;28;20531;-73
2023/10/08 14:19:14;;;;;;;5.82;1.63;;;19.00;97.30;;;;;;4973039;28;20559;-74
2023/10/08 14:22:03;;;;;;;5.38;1.30;;;19.10;97.00;;;;;;4955641;28;20054;-76
2023/10/08 14:24:58;;;;;;;5.18;1.50;;;19.20;96.90;;;;;;4972860;28;20522;-74
2023/10/08 14:27:51;;;;;;;6.47;1.33;;;19.60;96.40;;;;;;4942222;28;20555;-74
2023/10/08 14:30:41;;;;;;;6.30;1.20;;;20.30;95.90;;;;;;4955650;28;20058;-75
2023/10/08 14:33:31;;;;;;;8.68;1.95;;;20.30;95.10;;;;;;4955509;28;20059;-75
2023/10/08 14:45:35;;;;;;;8.00;2.00;;;19.40;95.50;;;;;;4955387;28;20110;-74
2023/10/08 14:48:22;;;;;;;7.15;1.27;;;19.10;96.40;;;;;;4955423;28;20070;-74
2023/10/08 14:51:08;;;;;;;12.15;2.15;;;18.90;97.30;;;;;;4955492;28;20050;-74
2023/10/08 14:53:54;;;;;;;7.90;1.40;;;18.80;97.30;;;;;;4971346;28;20106;-74
2023/10/08 14:56:40;;;;;;;7.47;1.85;;;18.60;97.60;;;;;;4955272;28;20157;-76
2023/10/08 14:59:30;;;;;;;4.47;1.60;;;18.50;98.30;;;;;;4955607;28;20063;-74
2023/10/08 15:02:16;;;;;;;13.20;1.52;;;18.30;98.70;;;;;;4954977;28;20055;-73
2023/10/08 15:05:05;;;;;;;6.20;1.58;;;18.20;99.00;;;;;;4958113;28;20055;-75
2023/10/08 15:07:52;;;;;;;8.07;2.50;;;18.20;99.40;;;;;;4955161;28;20515;-74
2023/10/08 15:10:38;;;;;;;7.60;1.17;;;18.10;99.70;;;;;;4941789;28;20501;-73
2023/10/08 15:13:25;;;;;;;10.68;1.48;;;18.00;99.90;;;;;;4955003;28;20105;-72
2023/10/08 15:16:12;;;;;;;6.95;1.17;;;18.00;99.70;;;;;;4954820;28;20065;-73